sensor_id;sensor_type;location;lat;lon;timestamp;P1;durP1;ratioP1;P2;durP2;ratioP2
24381;SDS011;12502;50.678;7.172;2022-09-24T00:03:21;10.93;;;6.60;;
24381;SDS011;12502;50.678;7.172;2022-09-24T00:08:25;11.88;;;6.35;;
24381;SDS011;12502;50.678;7.172;2022-09-24T00:13:27;8.32;;;6.05;;
24381;SDS011;12502;50.678;7.172;2022-09-24T00:18:28;11.55;;;6.55;;
24381;SDS011;12502;50.678;7.172;2022-09-24T00:23:30;9.48;;;5.75;;
24381;SDS011;12502;50.678;7.172;2022-09-24T00:28:32;7.55;;;6.10;;
24381;SDS011;12502;50.678;7.172;2022-09-24T00:33:34;9.05;;;6.25;;
24381;SDS011;12502;50.678;7.172;2022-09-24T00:38:35;9.55;;;6.25;;
24381;SDS011;12502;50.678;7.172;2022-09-24T00:43:37;9.55;;;6.05;;
24381;SDS011;12502;50.678;7.172;2022-09-24T00:48:40;10.57;;;6.82;;
24381;SDS011;12502;50.678;7.172;2022-09-24T00:53:43;7.30;;;6.07;;
24381;SDS011;12502;50.678;7.172;2022-09-24T00:58:50;8.43;;;6.25;;
24381;SDS011;12502;50.678;7.172;2022-09-24T01:03:55;9.27;;;5.88;;
24381;SDS011;12502;50.678;7.172;2022-09-24T01:08:58;7.93;;;6.20;;
24381;SDS011;12502;50.678;7.172;2022-09-24T01:19:42;7.47;;;5.97;;
24381;SDS011;12502;50.678;7.172;2022-09-24T01:30:11;8.90;;;6.43;;
24381;SDS011;12502;50.678;7.172;2022-09-24T01:40:37;12.93;;;6.25;;
24381;SDS011;12502;50.678;7.172;2022-09-24T01:45:41;14.13;;;6.53;;
24381;SDS011;12502;50.678;7.172;2022-09-24T01:56:45;11.85;;;6.90;;
24381;SDS011;12502;50.678;7.172;2022-09-24T02:01:44;8.00;;;6.80;;
24381;SDS011;12502;50.678;7.172;2022-09-24T02:07:11;9.18;;;6.03;;
24381;SDS011;12502;50.678;7.172;2022-09-24T02:12:20;8.30;;;6.70;;
24381;SDS011;12502;50.678;7.172;2022-09-24T02:17:30;7.63;;;6.68;;
24381;SDS011;12502;50.678;7.172;2022-09-24T02:22:34;10.73;;;6.97;;
24381;SDS011;12502;50.678;7.172;2022-09-24T02:32:40;9.63;;;7.53;;
24381;SDS011;12502;50.678;7.172;2022-09-24T02:37:44;12.38;;;8.00;;
24381;SDS011;12502;50.678;7.172;2022-09-24T02:42:48;8.73;;;6.37;;
24381;SDS011;12502;50.678;7.172;2022-09-24T02:47:50;8.43;;;6.18;;
24381;SDS011;12502;50.678;7.172;2022-09-24T02:52:52;11.63;;;6.47;;
24381;SDS011;12502;50.678;7.172;2022-09-24T02:57:55;6.63;;;6.03;;
24381;SDS011;12502;50.678;7.172;2022-09-24T03:02:56;9.57;;;7.05;;
24381;SDS011;12502;50.678;7.172;2022-09-24T03:07:58;11.73;;;6.70;;
24381;SDS011;12502;50.678;7.172;2022-09-24T03:13:00;9.65;;;6.13;;
24381;SDS011;12502;50.678;7.172;2022-09-24T03:18:02;10.98;;;6.95;;
24381;SDS011;12502;50.678;7.172;2022-09-24T03:23:04;12.10;;;6.70;;
24381;SDS011;12502;50.678;7.172;2022-09-24T03:28:06;7.70;;;6.35;;
24381;SDS011;12502;50.678;7.172;2022-09-24T03:33:07;8.93;;;6.43;;
24381;SDS011;12502;50.678;7.172;2022-09-24T03:38:09;7.25;;;6.03;;
24381;SDS011;12502;50.678;7.172;2022-09-24T03:43:12;10.18;;;7.13;;
24381;SDS011;12502;50.678;7.172;2022-09-24T03:48:17;9.70;;;6.63;;
24381;SDS011;12502;50.678;7.172;2022-09-24T03:53:20;11.18;;;7.05;;
24381;SDS011;12502;50.678;7.172;2022-09-24T03:58:23;13.57;;;8.02;;
24381;SDS011;12502;50.678;7.172;2022-09-24T04:03:25;10.45;;;8.23;;
24381;SDS011;12502;50.678;7.172;2022-09-24T04:08:26;11.15;;;7.35;;
24381;SDS011;12502;50.678;7.172;2022-09-24T04:13:28;12.30;;;7.38;;
24381;SDS011;12502;50.678;7.172;2022-09-24T04:18:30;9.48;;;7.00;;
24381;SDS011;12502;50.678;7.172;2022-09-24T04:23:38;8.57;;;6.90;;
24381;SDS011;12502;50.678;7.172;2022-09-24T04:28:41;11.43;;;7.60;;
24381;SDS011;12502;50.678;7.172;2022-09-24T04:33:43;9.73;;;6.88;;
24381;SDS011;12502;50.678;7.172;2022-09-24T04:38:44;9.13;;;6.10;;
24381;SDS011;12502;50.678;7.172;2022-09-24T04:43:46;7.95;;;6.70;;
24381;SDS011;12502;50.678;7.172;2022-09-24T04:48:48;7.82;;;6.18;;
24381;SDS011;12502;50.678;7.172;2022-09-24T04:53:50;8.85;;;6.70;;
24381;SDS011;12502;50.678;7.172;2022-09-24T04:58:52;9.30;;;6.65;;
24381;SDS011;12502;50.678;7.172;2022-09-24T05:03:55;8.55;;;6.05;;
24381;SDS011;12502;50.678;7.172;2022-09-24T05:08:56;7.25;;;6.20;;
24381;SDS011;12502;50.678;7.172;2022-09-24T05:18:26;9.63;;;6.18;;
24381;SDS011;12502;50.678;7.172;2022-09-24T05:23:28;9.38;;;6.43;;
24381;SDS011;12502;50.678;7.172;2022-09-24T05:28:30;10.63;;;6.55;;
24381;SDS011;12502;50.678;7.172;2022-09-24T05:33:33;11.07;;;6.47;;
24381;SDS011;12502;50.678;7.172;2022-09-24T05:38:35;8.75;;;6.30;;
24381;SDS011;12502;50.678;7.172;2022-09-24T05:43:41;11.05;;;7.32;;
24381;SDS011;12502;50.678;7.172;2022-09-24T05:48:43;10.85;;;7.75;;
24381;SDS011;12502;50.678;7.172;2022-09-24T05:53:44;11.38;;;7.57;;
24381;SDS011;12502;50.678;7.172;2022-09-24T05:58:49;9.07;;;7.95;;
24381;SDS011;12502;50.678;7.172;2022-09-24T06:03:51;8.85;;;7.53;;
24381;SDS011;12502;50.678;7.172;2022-09-24T06:08:53;12.20;;;7.65;;
24381;SDS011;12502;50.678;7.172;2022-09-24T06:18:57;9.55;;;7.60;;
24381;SDS011;12502;50.678;7.172;2022-09-24T06:23:59;10.88;;;7.78;;
24381;SDS011;12502;50.678;7.172;2022-09-24T06:29:01;11.25;;;8.38;;
24381;SDS011;12502;50.678;7.172;2022-09-24T06:34:05;11.07;;;8.10;;
24381;SDS011;12502;50.678;7.172;2022-09-24T06:39:07;13.48;;;8.15;;
24381;SDS011;12502;50.678;7.172;2022-09-24T06:44:09;12.27;;;8.60;;
24381;SDS011;12502;50.678;7.172;2022-09-24T06:49:11;10.18;;;8.65;;
24381;SDS011;12502;50.678;7.172;2022-09-24T06:54:13;13.95;;;8.43;;
24381;SDS011;12502;50.678;7.172;2022-09-24T06:59:14;10.77;;;8.10;;
24381;SDS011;12502;50.678;7.172;2022-09-24T07:04:16;9.13;;;8.02;;
24381;SDS011;12502;50.678;7.172;2022-09-24T07:09:17;10.00;;;7.80;;
24381;SDS011;12502;50.678;7.172;2022-09-24T07:14:19;9.77;;;7.28;;
24381;SDS011;12502;50.678;7.172;2022-09-24T07:19:21;13.48;;;7.53;;
24381;SDS011;12502;50.678;7.172;2022-09-24T07:24:22;9.93;;;6.88;;
24381;SDS011;12502;50.678;7.172;2022-09-24T07:29:24;9.88;;;7.07;;
24381;SDS011;12502;50.678;7.172;2022-09-24T07:34:26;11.93;;;7.07;;
24381;SDS011;12502;50.678;7.172;2022-09-24T07:39:28;9.70;;;6.75;;
24381;SDS011;12502;50.678;7.172;2022-09-24T07:44:30;11.82;;;6.50;;
24381;SDS011;12502;50.678;7.172;2022-09-24T07:49:32;14.60;;;6.97;;
24381;SDS011;12502;50.678;7.172;2022-09-24T07:54:35;10.40;;;6.13;;
24381;SDS011;12502;50.678;7.172;2022-09-24T07:59:37;7.85;;;6.63;;
24381;SDS011;12502;50.678;7.172;2022-09-24T08:04:38;12.85;;;6.53;;
24381;SDS011;12502;50.678;7.172;2022-09-24T08:09:40;10.27;;;6.93;;
24381;SDS011;12502;50.678;7.172;2022-09-24T08:14:42;10.57;;;6.50;;
24381;SDS011;12502;50.678;7.172;2022-09-24T08:19:45;10.15;;;6.45;;
24381;SDS011;12502;50.678;7.172;2022-09-24T08:24:47;10.20;;;6.68;;
24381;SDS011;12502;50.678;7.172;2022-09-24T08:29:48;12.30;;;7.00;;
24381;SDS011;12502;50.678;7.172;2022-09-24T08:34:50;15.23;;;6.65;;
24381;SDS011;12502;50.678;7.172;2022-09-24T08:39:53;9.80;;;6.88;;
24381;SDS011;12502;50.678;7.172;2022-09-24T08:44:55;8.65;;;6.00;;
24381;SDS011;12502;50.678;7.172;2022-09-24T08:50:23;9.73;;;6.65;;
24381;SDS011;12502;50.678;7.172;2022-09-24T08:55:30;10.57;;;6.95;;
24381;SDS011;12502;50.678;7.172;2022-09-24T09:06:02;8.67;;;6.87;;
24381;SDS011;12502;50.678;7.172;2022-09-24T09:11:11;9.85;;;6.40;;
24381;SDS011;12502;50.678;7.172;2022-09-24T09:16:38;10.13;;;7.03;;
24381;SDS011;12502;50.678;7.172;2022-09-24T09:27:01;11.15;;;7.68;;
24381;SDS011;12502;50.678;7.172;2022-09-24T09:43:42;12.68;;;8.85;;
24381;SDS011;12502;50.678;7.172;2022-09-24T09:48:45;14.60;;;8.30;;
24381;SDS011;12502;50.678;7.172;2022-09-24T09:53:52;10.27;;;8.55;;
24381;SDS011;12502;50.678;7.172;2022-09-24T10:09:40;13.85;;;8.38;;
24381;SDS011;12502;50.678;7.172;2022-09-24T10:14:43;11.95;;;8.23;;
24381;SDS011;12502;50.678;7.172;2022-09-24T10:19:45;11.57;;;7.85;;
24381;SDS011;12502;50.678;7.172;2022-09-24T10:24:48;11.23;;;7.85;;
24381;SDS011;12502;50.678;7.172;2022-09-24T10:29:51;12.40;;;7.65;;
24381;SDS011;12502;50.678;7.172;2022-09-24T10:35:33;13.73;;;7.60;;
24381;SDS011;12502;50.678;7.172;2022-09-24T10:40:39;9.97;;;7.10;;
24381;SDS011;12502;50.678;7.172;2022-09-24T10:56:32;11.70;;;8.45;;
24381;SDS011;12502;50.678;7.172;2022-09-24T11:12:20;18.17;;;10.35;;
24381;SDS011;12502;50.678;7.172;2022-09-24T11:38:48;18.58;;;11.82;;
24381;SDS011;12502;50.678;7.172;2022-09-24T11:44:16;15.35;;;11.85;;
24381;SDS011;12502;50.678;7.172;2022-09-24T12:00:14;15.30;;;11.40;;
24381;SDS011;12502;50.678;7.172;2022-09-24T12:05:27;13.48;;;11.75;;
24381;SDS011;12502;50.678;7.172;2022-09-24T12:10:44;19.58;;;12.68;;
24381;SDS011;12502;50.678;7.172;2022-09-24T12:15:58;16.50;;;12.68;;
24381;SDS011;12502;50.678;7.172;2022-09-24T12:21:06;16.65;;;11.95;;
24381;SDS011;12502;50.678;7.172;2022-09-24T12:26:10;17.33;;;11.55;;
24381;SDS011;12502;50.678;7.172;2022-09-24T12:31:28;15.30;;;11.82;;
24381;SDS011;12502;50.678;7.172;2022-09-24T12:37:06;14.75;;;11.98;;
24381;SDS011;12502;50.678;7.172;2022-09-24T12:42:12;15.63;;;12.90;;
24381;SDS011;12502;50.678;7.172;2022-09-24T12:52:23;16.75;;;11.90;;
24381;SDS011;12502;50.678;7.172;2022-09-24T13:03:01;18.83;;;12.95;;
24381;SDS011;12502;50.678;7.172;2022-09-24T13:13:20;15.70;;;10.63;;
24381;SDS011;12502;50.678;7.172;2022-09-24T13:18:25;14.65;;;10.20;;
24381;SDS011;12502;50.678;7.172;2022-09-24T13:23:31;15.57;;;9.20;;
24381;SDS011;12502;50.678;7.172;2022-09-24T13:28:52;12.48;;;9.32;;
24381;SDS011;12502;50.678;7.172;2022-09-24T13:39:12;17.05;;;10.05;;
24381;SDS011;12502;50.678;7.172;2022-09-24T13:49:41;16.25;;;12.35;;
24381;SDS011;12502;50.678;7.172;2022-09-24T13:54:51;20.05;;;11.82;;
24381;SDS011;12502;50.678;7.172;2022-09-24T14:00:02;19.05;;;13.13;;
24381;SDS011;12502;50.678;7.172;2022-09-24T14:05:05;17.60;;;12.70;;
24381;SDS011;12502;50.678;7.172;2022-09-24T14:10:14;24.02;;;14.68;;
24381;SDS011;12502;50.678;7.172;2022-09-24T14:15:17;20.83;;;15.32;;
24381;SDS011;12502;50.678;7.172;2022-09-24T14:20:19;21.20;;;15.43;;
24381;SDS011;12502;50.678;7.172;2022-09-24T14:25:27;22.42;;;14.70;;
24381;SDS011;12502;50.678;7.172;2022-09-24T14:30:30;21.73;;;15.57;;
24381;SDS011;12502;50.678;7.172;2022-09-24T14:35:36;21.63;;;16.42;;
24381;SDS011;12502;50.678;7.172;2022-09-24T14:45:50;27.83;;;17.70;;
24381;SDS011;12502;50.678;7.172;2022-09-24T14:50:52;25.92;;;20.17;;
24381;SDS011;12502;50.678;7.172;2022-09-24T14:55:56;25.38;;;20.00;;
24381;SDS011;12502;50.678;7.172;2022-09-24T15:00:59;26.67;;;22.13;;
24381;SDS011;12502;50.678;7.172;2022-09-24T15:06:16;29.33;;;23.25;;
24381;SDS011;12502;50.678;7.172;2022-09-24T15:11:28;32.53;;;24.90;;
24381;SDS011;12502;50.678;7.172;2022-09-24T15:16:34;31.77;;;24.63;;
24381;SDS011;12502;50.678;7.172;2022-09-24T15:21:37;37.03;;;27.25;;
24381;SDS011;12502;50.678;7.172;2022-09-24T15:26:39;37.30;;;27.52;;
24381;SDS011;12502;50.678;7.172;2022-09-24T15:31:43;38.85;;;27.60;;
24381;SDS011;12502;50.678;7.172;2022-09-24T15:36:46;39.85;;;29.00;;
24381;SDS011;12502;50.678;7.172;2022-09-24T15:46:51;40.92;;;30.98;;
24381;SDS011;12502;50.678;7.172;2022-09-24T15:51:58;38.70;;;29.45;;
24381;SDS011;12502;50.678;7.172;2022-09-24T15:57:02;37.47;;;30.67;;
24381;SDS011;12502;50.678;7.172;2022-09-24T16:02:05;34.70;;;27.98;;
24381;SDS011;12502;50.678;7.172;2022-09-24T16:07:22;39.03;;;27.42;;
24381;SDS011;12502;50.678;7.172;2022-09-24T16:12:24;37.90;;;30.13;;
24381;SDS011;12502;50.678;7.172;2022-09-24T16:17:28;36.03;;;28.42;;
24381;SDS011;12502;50.678;7.172;2022-09-24T16:22:30;47.25;;;33.00;;
24381;SDS011;12502;50.678;7.172;2022-09-24T16:27:31;38.75;;;30.70;;
24381;SDS011;12502;50.678;7.172;2022-09-24T16:32:35;43.75;;;29.90;;
24381;SDS011;12502;50.678;7.172;2022-09-24T16:37:37;39.88;;;30.80;;
24381;SDS011;12502;50.678;7.172;2022-09-24T16:42:38;39.13;;;29.10;;
24381;SDS011;12502;50.678;7.172;2022-09-24T16:47:40;37.72;;;30.10;;
24381;SDS011;12502;50.678;7.172;2022-09-24T16:52:42;39.40;;;29.88;;
24381;SDS011;12502;50.678;7.172;2022-09-24T16:57:45;37.75;;;28.77;;
24381;SDS011;12502;50.678;7.172;2022-09-24T17:02:46;33.72;;;25.70;;
24381;SDS011;12502;50.678;7.172;2022-09-24T17:07:48;37.00;;;26.27;;
24381;SDS011;12502;50.678;7.172;2022-09-24T17:12:50;33.17;;;24.50;;
24381;SDS011;12502;50.678;7.172;2022-09-24T17:17:52;25.80;;;21.13;;
24381;SDS011;12502;50.678;7.172;2022-09-24T17:22:54;26.20;;;21.70;;
24381;SDS011;12502;50.678;7.172;2022-09-24T17:27:56;22.95;;;18.90;;
24381;SDS011;12502;50.678;7.172;2022-09-24T17:32:57;24.67;;;17.25;;
24381;SDS011;12502;50.678;7.172;2022-09-24T17:37:59;22.23;;;17.55;;
24381;SDS011;12502;50.678;7.172;2022-09-24T17:43:01;24.00;;;17.17;;
24381;SDS011;12502;50.678;7.172;2022-09-24T17:48:02;21.15;;;16.50;;
24381;SDS011;12502;50.678;7.172;2022-09-24T17:53:06;21.45;;;17.35;;
24381;SDS011;12502;50.678;7.172;2022-09-24T17:58:13;22.80;;;16.95;;
24381;SDS011;12502;50.678;7.172;2022-09-24T18:03:15;24.38;;;17.85;;
24381;SDS011;12502;50.678;7.172;2022-09-24T18:08:17;27.73;;;20.67;;
24381;SDS011;12502;50.678;7.172;2022-09-24T18:13:19;26.67;;;20.63;;
24381;SDS011;12502;50.678;7.172;2022-09-24T18:18:21;28.40;;;20.70;;
24381;SDS011;12502;50.678;7.172;2022-09-24T18:23:23;28.33;;;21.23;;
24381;SDS011;12502;50.678;7.172;2022-09-24T18:28:24;31.10;;;22.50;;
24381;SDS011;12502;50.678;7.172;2022-09-24T18:33:26;29.98;;;23.17;;
24381;SDS011;12502;50.678;7.172;2022-09-24T18:38:28;30.35;;;22.92;;
24381;SDS011;12502;50.678;7.172;2022-09-24T18:43:32;27.58;;;21.10;;
24381;SDS011;12502;50.678;7.172;2022-09-24T18:48:33;24.60;;;20.08;;
24381;SDS011;12502;50.678;7.172;2022-09-24T18:53:35;29.65;;;21.95;;
24381;SDS011;12502;50.678;7.172;2022-09-24T18:58:37;33.70;;;23.67;;
24381;SDS011;12502;50.678;7.172;2022-09-24T19:03:39;32.92;;;24.63;;
24381;SDS011;12502;50.678;7.172;2022-09-24T19:08:41;33.65;;;24.42;;
24381;SDS011;12502;50.678;7.172;2022-09-24T19:13:46;29.42;;;23.13;;
24381;SDS011;12502;50.678;7.172;2022-09-24T19:18:50;25.85;;;21.02;;
24381;SDS011;12502;50.678;7.172;2022-09-24T19:23:54;25.35;;;20.15;;
24381;SDS011;12502;50.678;7.172;2022-09-24T19:28:57;27.02;;;20.98;;
24381;SDS011;12502;50.678;7.172;2022-09-24T19:33:59;28.35;;;22.80;;
24381;SDS011;12502;50.678;7.172;2022-09-24T19:39:03;31.53;;;23.57;;
24381;SDS011;12502;50.678;7.172;2022-09-24T19:44:04;29.10;;;22.25;;
24381;SDS011;12502;50.678;7.172;2022-09-24T19:49:09;24.80;;;20.83;;
24381;SDS011;12502;50.678;7.172;2022-09-24T19:54:12;24.45;;;20.65;;
24381;SDS011;12502;50.678;7.172;2022-09-24T19:59:13;25.77;;;20.70;;
24381;SDS011;12502;50.678;7.172;2022-09-24T20:04:16;25.33;;;20.95;;
24381;SDS011;12502;50.678;7.172;2022-09-24T20:09:20;28.58;;;20.90;;
24381;SDS011;12502;50.678;7.172;2022-09-24T20:14:22;28.58;;;21.83;;
24381;SDS011;12502;50.678;7.172;2022-09-24T20:19:24;25.15;;;21.20;;
24381;SDS011;12502;50.678;7.172;2022-09-24T20:24:26;24.00;;;20.30;;
24381;SDS011;12502;50.678;7.172;2022-09-24T20:29:28;26.35;;;20.77;;
24381;SDS011;12502;50.678;7.172;2022-09-24T20:34:30;25.60;;;20.55;;
24381;SDS011;12502;50.678;7.172;2022-09-24T20:39:35;27.13;;;22.08;;
24381;SDS011;12502;50.678;7.172;2022-09-24T20:44:37;28.25;;;22.15;;
24381;SDS011;12502;50.678;7.172;2022-09-24T20:49:39;32.65;;;24.50;;
24381;SDS011;12502;50.678;7.172;2022-09-24T20:54:41;27.98;;;22.52;;
24381;SDS011;12502;50.678;7.172;2022-09-24T20:59:42;27.52;;;22.65;;
24381;SDS011;12502;50.678;7.172;2022-09-24T21:04:44;35.40;;;24.83;;
24381;SDS011;12502;50.678;7.172;2022-09-24T21:09:46;28.73;;;23.35;;
24381;SDS011;12502;50.678;7.172;2022-09-24T21:14:48;30.95;;;25.05;;
24381;SDS011;12502;50.678;7.172;2022-09-24T21:19:49;30.02;;;23.98;;
24381;SDS011;12502;50.678;7.172;2022-09-24T21:24:51;37.58;;;26.27;;
24381;SDS011;12502;50.678;7.172;2022-09-24T21:29:56;35.85;;;26.65;;
24381;SDS011;12502;50.678;7.172;2022-09-24T21:34:57;29.98;;;23.88;;
24381;SDS011;12502;50.678;7.172;2022-09-24T21:39:59;29.55;;;23.80;;
24381;SDS011;12502;50.678;7.172;2022-09-24T21:45:05;34.30;;;25.08;;
24381;SDS011;12502;50.678;7.172;2022-09-24T21:50:07;34.95;;;26.15;;
24381;SDS011;12502;50.678;7.172;2022-09-24T21:55:09;32.40;;;26.00;;
24381;SDS011;12502;50.678;7.172;2022-09-24T22:05:16;34.03;;;24.90;;
24381;SDS011;12502;50.678;7.172;2022-09-24T22:10:19;32.35;;;24.73;;
24381;SDS011;12502;50.678;7.172;2022-09-24T22:15:22;31.98;;;24.20;;
24381;SDS011;12502;50.678;7.172;2022-09-24T22:20:24;35.30;;;26.40;;
24381;SDS011;12502;50.678;7.172;2022-09-24T22:25:25;30.98;;;24.83;;
24381;SDS011;12502;50.678;7.172;2022-09-24T22:30:27;31.30;;;25.10;;
24381;SDS011;12502;50.678;7.172;2022-09-24T22:35:30;33.28;;;25.80;;
24381;SDS011;12502;50.678;7.172;2022-09-24T22:40:49;33.33;;;25.52;;
24381;SDS011;12502;50.678;7.172;2022-09-24T22:45:56;34.45;;;26.02;;
24381;SDS011;12502;50.678;7.172;2022-09-24T22:51:02;34.97;;;26.90;;
24381;SDS011;12502;50.678;7.172;2022-09-24T23:01:15;33.08;;;26.05;;
24381;SDS011;12502;50.678;7.172;2022-09-24T23:06:23;36.00;;;27.20;;
24381;SDS011;12502;50.678;7.172;2022-09-24T23:11:26;35.83;;;27.50;;
24381;SDS011;12502;50.678;7.172;2022-09-24T23:16:34;36.22;;;27.08;;
24381;SDS011;12502;50.678;7.172;2022-09-24T23:21:37;37.63;;;29.08;;
24381;SDS011;12502;50.678;7.172;2022-09-24T23:26:39;34.45;;;28.15;;
24381;SDS011;12502;50.678;7.172;2022-09-24T23:31:41;37.95;;;29.02;;
24381;SDS011;12502;50.678;7.172;2022-09-24T23:36:43;49.35;;;35.75;;
24381;SDS011;12502;50.678;7.172;2022-09-24T23:41:46;48.28;;;35.60;;
24381;SDS011;12502;50.678;7.172;2022-09-24T23:46:48;50.80;;;35.67;;
24381;SDS011;12502;50.678;7.172;2022-09-24T23:51:49;49.05;;;36.17;;
24381;SDS011;12502;50.678;7.172;2022-09-24T23:56:51;51.08;;;37.83;;
